createdAt,value
2023-04-15T00:00:56.567Z,33.83
2023-04-15T00:03:23.290Z,35.50
2023-04-15T00:05:50.095Z,33.97
2023-04-15T00:08:16.607Z,30.23
2023-04-15T00:10:43.082Z,35.03
2023-04-15T00:13:09.842Z,30.42
2023-04-15T00:15:36.367Z,30.38
2023-04-15T00:18:02.901Z,33.50
2023-04-15T00:20:29.349Z,32.38
2023-04-15T00:22:55.857Z,31.83
2023-04-15T00:25:22.336Z,32.30
2023-04-15T00:27:48.815Z,35.17
2023-04-15T00:30:15.344Z,32.25
2023-04-15T00:32:41.881Z,30.20
2023-04-15T00:35:08.816Z,30.23
2023-04-15T00:37:35.312Z,31.42
2023-04-15T00:40:01.800Z,30.70
2023-04-15T00:42:28.778Z,34.03
2023-04-15T00:44:55.265Z,35.42
2023-04-15T00:47:21.861Z,30.58
2023-04-15T00:49:48.347Z,25.70
2023-04-15T00:52:14.968Z,17.27
2023-04-15T00:54:41.458Z,16.17
2023-04-15T00:57:08.029Z,17.20
2023-04-15T00:59:34.671Z,24.15
2023-04-15T01:02:01.360Z,24.90
2023-04-15T01:04:28.031Z,24.17
2023-04-15T01:06:54.652Z,27.25
2023-04-15T01:09:21.161Z,26.67
2023-04-15T01:11:47.813Z,23.08
2023-04-15T01:14:14.348Z,22.10
2023-04-15T01:16:40.879Z,21.88
2023-04-15T01:19:10.725Z,23.90
2023-04-15T01:21:37.836Z,20.00
2023-04-15T01:24:10.644Z,22.02
2023-04-15T01:26:41.123Z,25.20
2023-04-15T01:29:07.703Z,22.63
2023-04-15T01:31:34.360Z,23.00
2023-04-15T01:34:00.947Z,22.75
2023-04-15T01:36:27.862Z,21.42
2023-04-15T01:38:55.871Z,21.58
2023-04-15T01:41:28.153Z,24.80
2023-04-15T01:43:55.029Z,28.55
2023-04-15T01:46:21.634Z,27.40
2023-04-15T01:48:48.152Z,27.73
2023-04-15T01:51:14.675Z,26.42
2023-04-15T01:53:41.168Z,25.30
2023-04-15T01:56:07.899Z,20.83
2023-04-15T01:58:34.424Z,21.85
2023-04-15T02:01:00.934Z,17.27
2023-04-15T02:03:29.037Z,14.13
2023-04-15T02:05:55.653Z,14.20
2023-04-15T02:08:22.277Z,13.35
2023-04-15T02:10:48.764Z,13.30
2023-04-15T02:13:15.248Z,15.95
2023-04-15T02:15:47.301Z,12.80
2023-04-15T02:18:13.906Z,15.57
2023-04-15T02:20:40.417Z,15.85
2023-04-15T02:23:06.901Z,21.38
2023-04-15T02:25:33.442Z,19.67
2023-04-15T02:27:59.935Z,20.27
2023-04-15T02:30:26.398Z,20.77
2023-04-15T02:32:52.989Z,19.85
2023-04-15T02:35:19.560Z,18.95
2023-04-15T02:37:46.040Z,19.25
2023-04-15T02:40:13.350Z,18.33
2023-04-15T02:45:07.208Z,16.60
2023-04-15T02:47:34.985Z,17.40
2023-04-15T02:50:03.353Z,15.00
2023-04-15T02:52:29.859Z,16.10
2023-04-15T02:54:56.415Z,16.63
2023-04-15T02:57:23.196Z,17.30
2023-04-15T02:59:49.664Z,17.38
2023-04-15T03:02:16.316Z,17.58
2023-04-15T03:04:42.960Z,18.35
2023-04-15T03:07:09.464Z,18.77
2023-04-15T03:09:35.960Z,16.58
2023-04-15T03:12:03.055Z,16.55
2023-04-15T03:14:29.599Z,19.70
2023-04-15T03:16:56.127Z,19.88
2023-04-15T03:19:22.743Z,17.38
2023-04-15T03:21:49.210Z,16.92
2023-04-15T03:24:15.808Z,17.75
2023-04-15T03:26:42.311Z,16.70
2023-04-15T03:29:08.882Z,16.48
2023-04-15T03:31:35.422Z,14.32
2023-04-15T03:34:01.932Z,14.52
2023-04-15T03:36:29.776Z,14.10
2023-04-15T03:38:56.273Z,13.40
2023-04-15T03:41:22.721Z,24.90
2023-04-15T03:43:49.215Z,16.95
2023-04-15T03:46:15.783Z,16.50
2023-04-15T03:48:42.288Z,14.25
2023-04-15T03:51:08.752Z,12.90
2023-04-15T03:53:35.288Z,15.57
2023-04-15T03:56:01.823Z,23.48
2023-04-15T03:58:28.416Z,21.13
2023-04-15T04:00:54.950Z,15.50
2023-04-15T04:03:21.712Z,12.15
2023-04-15T04:05:48.557Z,8.45
2023-04-15T04:08:15.075Z,7.75
2023-04-15T04:10:41.904Z,8.10
2023-04-15T04:13:08.679Z,7.65
2023-04-15T04:15:35.237Z,7.90
2023-04-15T04:18:01.923Z,8.93
2023-04-15T04:20:28.461Z,9.68
2023-04-15T04:22:54.958Z,10.77
2023-04-15T04:25:21.428Z,10.20
2023-04-15T04:27:47.890Z,13.35
2023-04-15T04:30:14.401Z,11.93
2023-04-15T04:32:40.967Z,15.07
2023-04-15T04:35:07.926Z,12.45
2023-04-15T04:37:34.411Z,11.85
2023-04-15T04:40:00.900Z,11.45
2023-04-15T04:42:27.520Z,10.55
2023-04-15T04:44:54.057Z,12.30
2023-04-15T04:47:20.637Z,13.75
2023-04-15T04:49:47.261Z,12.98
2023-04-15T04:52:13.840Z,9.88
2023-04-15T04:54:40.352Z,11.07
2023-04-15T04:57:06.833Z,8.85
2023-04-15T04:59:33.661Z,9.18
2023-04-15T05:02:00.330Z,6.97
2023-04-15T05:04:26.862Z,10.65
2023-04-15T05:06:53.382Z,12.73
2023-04-15T05:09:19.867Z,12.23
2023-04-15T05:11:46.349Z,17.05
2023-04-15T05:14:12.858Z,18.70
2023-04-15T05:16:39.366Z,18.30
2023-04-15T05:19:05.885Z,24.33
2023-04-15T05:21:32.400Z,17.02
2023-04-15T05:23:58.994Z,13.80
2023-04-15T05:26:25.469Z,14.27
2023-04-15T05:28:51.983Z,15.55
2023-04-15T05:31:18.605Z,12.40
2023-04-15T05:33:45.211Z,15.60
2023-04-15T05:36:11.706Z,21.80
2023-04-15T05:38:38.207Z,24.35
2023-04-15T05:41:04.798Z,26.58
2023-04-15T05:43:31.294Z,23.40
2023-04-15T05:45:57.825Z,22.65
2023-04-15T05:48:24.334Z,21.02
2023-04-15T05:50:50.897Z,26.38
2023-04-15T05:53:17.464Z,23.95
2023-04-15T05:55:43.986Z,21.67
2023-04-15T05:58:10.482Z,21.52
2023-04-15T06:00:37.096Z,23.08
2023-04-15T06:03:03.921Z,20.30
2023-04-15T06:05:30.496Z,12.18
2023-04-15T06:07:56.979Z,11.75
2023-04-15T06:10:23.440Z,11.68
2023-04-15T06:12:49.976Z,9.80
2023-04-15T06:15:16.489Z,5.63
2023-04-15T06:17:43.054Z,5.93
2023-04-15T06:20:10.123Z,9.57
2023-04-15T06:22:37.618Z,13.55
2023-04-15T06:25:04.542Z,7.45
2023-04-15T06:27:31.060Z,6.38
2023-04-15T06:29:57.550Z,7.65
2023-04-15T06:32:24.049Z,2.75
2023-04-15T06:34:50.552Z,7.57
2023-04-15T06:37:17.077Z,3.83
2023-04-15T06:39:43.578Z,3.28
2023-04-15T06:42:11.165Z,4.45
2023-04-15T06:44:37.952Z,3.60
2023-04-15T06:47:04.425Z,4.20
2023-04-15T06:49:30.928Z,2.42
2023-04-15T06:51:57.467Z,2.75
2023-04-15T06:54:23.951Z,0.90
2023-04-15T06:56:50.457Z,5.80
2023-04-15T06:59:16.955Z,8.60
2023-04-15T07:01:44.921Z,2.42
2023-04-15T07:04:11.419Z,3.78
2023-04-15T07:06:37.977Z,3.45
2023-04-15T07:09:04.719Z,4.28
2023-04-15T07:11:31.542Z,3.55
2023-04-15T07:13:58.422Z,3.03
2023-04-15T07:16:25.760Z,3.47
2023-04-15T07:18:53.110Z,3.03
2023-04-15T07:21:19.619Z,3.13
2023-04-15T07:23:46.110Z,5.10
2023-04-15T07:26:12.770Z,3.83
2023-04-15T07:28:39.274Z,6.22
2023-04-15T07:31:05.805Z,1.58
2023-04-15T07:33:32.454Z,0.77
2023-04-15T07:35:58.959Z,1.33
2023-04-15T07:38:26.550Z,1.90
2023-04-15T07:40:53.157Z,3.92
2023-04-15T07:43:19.688Z,4.55
2023-04-15T07:45:46.182Z,1.95
2023-04-15T07:48:12.728Z,0.85
2023-04-15T07:50:39.509Z,1.10
2023-04-15T07:53:07.258Z,3.03
2023-04-15T07:55:33.808Z,0.93
2023-04-15T07:58:00.337Z,1.88
2023-04-15T08:00:26.862Z,1.20
2023-04-15T08:02:53.616Z,5.25
2023-04-15T08:05:20.365Z,1.15
2023-04-15T08:10:13.259Z,1.85
2023-04-15T08:12:39.852Z,2.25
2023-04-15T08:15:06.914Z,2.42
2023-04-15T08:17:33.523Z,4.18
2023-04-15T08:22:26.471Z,2.60
2023-04-15T08:24:54.193Z,8.18
2023-04-15T08:27:20.690Z,1.42
2023-04-15T08:29:47.192Z,5.97
2023-04-15T08:32:13.750Z,28.15
2023-04-15T08:34:40.273Z,5.13
2023-04-15T08:37:06.786Z,18.50
2023-04-15T08:39:33.289Z,9.15
2023-04-15T08:42:04.412Z,2.42
2023-04-15T08:44:34.808Z,21.05
2023-04-15T08:47:02.342Z,4.25
2023-04-15T08:49:29.811Z,2.53
2023-04-15T08:51:59.261Z,32.83
2023-04-15T08:54:26.909Z,5.55
2023-04-15T08:56:53.693Z,7.78
2023-04-15T08:59:21.632Z,2.72
2023-04-15T09:01:49.998Z,4.60
2023-04-15T09:04:17.551Z,5.25
2023-04-15T09:06:44.160Z,4.10
2023-04-15T09:11:37.060Z,6.18
2023-04-15T09:14:03.566Z,4.50
2023-04-15T09:16:30.075Z,0.65
2023-04-15T09:18:56.612Z,1.77
2023-04-15T09:21:24.540Z,2.33
2023-04-15T09:23:56.778Z,1.95
2023-04-15T09:26:36.802Z,1.77
2023-04-15T09:29:11.140Z,1.92
2023-04-15T09:31:37.687Z,2.72
2023-04-15T09:34:04.604Z,1.10
2023-04-15T09:36:58.745Z,2.15
2023-04-15T09:39:25.225Z,1.10
2023-04-15T09:42:07.834Z,1.10
2023-04-15T09:44:34.412Z,1.42
2023-04-15T09:47:01.031Z,0.82
2023-04-15T09:52:05.616Z,1.77
2023-04-15T09:54:34.183Z,1.50
2023-04-15T09:57:08.938Z,1.52
2023-04-15T09:59:35.797Z,1.27
2023-04-15T10:02:04.912Z,0.93
2023-04-15T10:04:35.195Z,2.80
2023-04-15T10:07:03.871Z,5.50
2023-04-15T10:09:31.089Z,2.05
2023-04-15T10:11:57.577Z,2.10
2023-04-15T10:16:56.324Z,1.48
2023-04-15T10:19:27.597Z,1.13
2023-04-15T10:21:55.338Z,2.08
2023-04-15T10:24:22.881Z,3.42
2023-04-15T10:26:51.041Z,1.38
2023-04-15T10:29:17.868Z,2.60
2023-04-15T10:31:44.921Z,9.38
2023-04-15T10:34:13.067Z,3.85
2023-04-15T10:36:39.738Z,2.33
2023-04-15T10:39:41.939Z,3.70
2023-04-15T10:42:16.419Z,4.25
2023-04-15T10:44:44.963Z,1.95
2023-04-15T10:47:14.168Z,1.30
2023-04-15T10:49:49.087Z,1.17
2023-04-15T10:52:17.077Z,1.08
2023-04-15T10:54:44.578Z,2.45
2023-04-15T10:57:16.855Z,2.45
2023-04-15T11:00:16.051Z,2.42
2023-04-15T11:02:55.067Z,1.30
2023-04-15T11:05:43.273Z,2.97
2023-04-15T11:08:10.867Z,1.00
2023-04-15T11:10:37.346Z,4.15
2023-04-15T11:15:41.104Z,1.25
2023-04-15T11:18:21.871Z,1.58
2023-04-15T11:20:53.875Z,6.45
2023-04-15T11:23:28.473Z,1.15
2023-04-15T11:25:56.062Z,0.77
2023-04-15T11:28:25.972Z,0.90
2023-04-15T11:30:52.576Z,1.73
2023-04-15T11:33:19.118Z,2.22
2023-04-15T11:35:45.666Z,11.13
2023-04-15T11:38:14.231Z,4.97
2023-04-15T11:40:44.539Z,8.48
2023-04-15T11:43:17.517Z,0.80
2023-04-15T11:45:57.671Z,1.77
2023-04-15T11:48:31.020Z,3.88
2023-04-15T11:51:07.524Z,4.82
2023-04-15T11:53:36.751Z,7.18
2023-04-15T11:56:03.288Z,2.67
2023-04-15T12:01:01.022Z,1.98
2023-04-15T12:03:28.822Z,2.55
2023-04-15T12:06:15.107Z,1.70
2023-04-15T12:08:59.474Z,1.65
2023-04-15T12:11:34.687Z,0.73
2023-04-15T12:14:31.486Z,2.95
2023-04-15T12:17:02.725Z,4.53
2023-04-15T12:19:40.174Z,10.15
2023-04-15T12:22:13.538Z,3.20
2023-04-15T12:24:40.419Z,3.75
2023-04-15T12:27:09.080Z,2.70
2023-04-15T12:29:37.473Z,2.78
2023-04-15T12:32:08.263Z,2.10
2023-04-15T12:34:37.150Z,9.52
2023-04-15T12:37:05.977Z,2.50
2023-04-15T12:39:41.279Z,2.83
2023-04-15T12:42:08.585Z,2.22
2023-04-15T12:44:36.423Z,2.88
2023-04-15T12:47:03.258Z,9.00
2023-04-15T12:49:32.570Z,10.52
2023-04-15T12:52:00.790Z,2.88
2023-04-15T12:54:28.171Z,3.03
2023-04-15T12:56:54.963Z,1.88
2023-04-15T12:59:21.892Z,2.88
2023-04-15T13:01:48.852Z,2.72
2023-04-15T13:04:16.266Z,3.33
2023-04-15T13:06:43.256Z,2.60
2023-04-15T13:09:09.882Z,3.67
2023-04-15T13:14:04.820Z,3.25
2023-04-15T13:16:32.645Z,2.63
2023-04-15T13:19:00.112Z,3.45
2023-04-15T13:21:26.639Z,4.63
2023-04-15T13:23:53.230Z,7.25
2023-04-15T13:28:46.361Z,2.38
2023-04-15T13:31:12.902Z,1.40
2023-04-15T13:33:39.491Z,2.22
2023-04-15T13:38:32.619Z,2.33
2023-04-15T13:43:25.536Z,1.52
2023-04-15T13:45:52.053Z,1.77
2023-04-15T13:48:18.603Z,2.45
2023-04-15T13:50:45.064Z,1.33
2023-04-15T13:53:12.549Z,2.03
2023-04-15T13:55:39.142Z,1.10
2023-04-15T13:58:05.664Z,1.30
2023-04-15T14:00:32.169Z,1.10
2023-04-15T14:02:58.772Z,3.05
2023-04-15T14:05:25.588Z,2.00
2023-04-15T14:10:18.568Z,2.17
2023-04-15T14:15:11.555Z,2.13
2023-04-15T14:20:07.623Z,3.53
2023-04-15T14:22:34.158Z,2.78
2023-04-15T14:27:27.089Z,4.70
2023-04-15T14:32:20.471Z,4.30
2023-04-15T14:34:46.954Z,5.53
2023-04-15T14:37:13.457Z,3.35
2023-04-15T14:39:40.022Z,3.05
2023-04-15T14:44:32.904Z,3.30
2023-04-15T14:46:59.544Z,2.00
2023-04-15T14:49:27.099Z,1.70
2023-04-15T14:51:53.609Z,15.60
2023-04-15T14:54:21.909Z,2.72
2023-04-15T14:56:48.892Z,2.85
2023-04-15T14:59:15.411Z,2.55
2023-04-15T15:01:42.079Z,2.03
2023-04-15T15:04:10.714Z,2.15
2023-04-15T15:06:37.329Z,1.88
2023-04-15T15:09:04.511Z,2.13
2023-04-15T15:11:31.209Z,1.52
2023-04-15T15:13:57.728Z,3.83
2023-04-15T15:16:25.141Z,2.35
2023-04-15T15:18:51.677Z,2.60
2023-04-15T15:21:18.188Z,2.20
2023-04-15T15:23:45.250Z,2.40
2023-04-15T15:26:12.331Z,5.85
2023-04-15T15:28:38.817Z,4.57
2023-04-15T15:31:05.551Z,10.20
2023-04-15T15:33:32.100Z,6.93
2023-04-15T15:35:58.844Z,10.32
2023-04-15T15:38:25.386Z,4.85
2023-04-15T15:40:51.860Z,11.73
2023-04-15T15:43:18.387Z,16.05
2023-04-15T15:45:45.303Z,15.57
2023-04-15T15:48:11.905Z,10.07
2023-04-15T15:53:04.832Z,5.88
2023-04-15T15:55:31.313Z,4.88
2023-04-15T15:57:57.802Z,4.05
2023-04-15T16:00:24.343Z,6.60
2023-04-15T16:03:05.972Z,3.75
2023-04-15T16:05:33.621Z,6.30
2023-04-15T16:08:00.211Z,8.30
2023-04-15T16:10:26.772Z,8.05
2023-04-15T16:12:53.349Z,20.73
2023-04-15T16:15:19.953Z,13.80
2023-04-15T16:17:46.557Z,9.05
2023-04-15T16:20:13.125Z,5.97
2023-04-15T16:22:39.659Z,3.42
2023-04-15T16:25:06.648Z,18.02
2023-04-15T16:27:33.850Z,13.55
2023-04-15T16:30:01.627Z,23.98
2023-04-15T16:32:28.239Z,19.65
2023-04-15T16:34:55.444Z,24.70
2023-04-15T16:37:22.040Z,30.50
2023-04-15T16:39:48.549Z,20.27
2023-04-15T16:42:15.076Z,70.18
2023-04-15T16:44:41.552Z,42.38
2023-04-15T16:47:08.039Z,45.22
2023-04-15T16:49:34.529Z,48.45
2023-04-15T16:52:01.038Z,39.13
2023-04-15T16:54:27.536Z,36.20
2023-04-15T16:56:54.071Z,32.25
2023-04-15T16:59:20.546Z,33.60
2023-04-15T17:01:47.073Z,42.03
2023-04-15T17:04:13.717Z,59.17
2023-04-15T17:06:40.324Z,50.47
2023-04-15T17:09:07.152Z,43.15
2023-04-15T17:11:33.850Z,36.35
2023-04-15T17:14:00.461Z,33.70
2023-04-15T17:16:26.963Z,31.95
2023-04-15T17:18:53.628Z,31.27
2023-04-15T17:21:20.081Z,31.13
2023-04-15T17:23:46.599Z,29.13
2023-04-15T17:26:13.158Z,29.38
2023-04-15T17:28:39.664Z,26.38
2023-04-15T17:31:06.325Z,25.90
2023-04-15T17:34:00.796Z,28.23
2023-04-15T17:36:19.443Z,29.60
2023-04-15T17:38:45.949Z,29.60
2023-04-15T17:41:12.635Z,28.00
2023-04-15T17:43:39.122Z,30.30
2023-04-15T17:46:07.298Z,29.95
2023-04-15T17:48:34.384Z,39.08
2023-04-15T17:51:00.891Z,39.63
2023-04-15T17:53:27.517Z,64.38
2023-04-15T17:55:54.029Z,62.67
2023-04-15T17:58:20.509Z,146.05
2023-04-15T18:00:47.336Z,114.72
2023-04-15T18:03:14.332Z,113.25
2023-04-15T18:05:42.678Z,87.38
2023-04-15T18:08:09.859Z,79.30
2023-04-15T18:10:36.915Z,76.30
2023-04-15T18:13:03.469Z,80.47
2023-04-15T18:15:33.358Z,86.05
2023-04-15T18:18:00.253Z,86.68
2023-04-15T18:22:53.308Z,103.07
2023-04-15T18:25:19.815Z,102.25
2023-04-15T18:27:46.348Z,90.55
2023-04-15T18:30:13.211Z,85.15
2023-04-15T18:32:39.934Z,86.53
2023-04-15T18:35:07.059Z,89.72
2023-04-15T18:37:33.688Z,119.78
2023-04-15T18:40:00.185Z,126.97
2023-04-15T18:42:26.731Z,107.63
2023-04-15T18:44:53.571Z,101.65
2023-04-15T18:47:20.194Z,103.18
2023-04-15T18:49:46.753Z,109.40
2023-04-15T18:52:13.300Z,87.70
2023-04-15T18:54:39.810Z,57.47
2023-04-15T18:57:06.489Z,45.95
2023-04-15T18:59:33.628Z,53.75
2023-04-15T19:02:00.600Z,58.33
2023-04-15T19:04:27.274Z,68.72
2023-04-15T19:06:53.940Z,56.65
2023-04-15T19:09:20.480Z,45.05
2023-04-15T19:11:46.966Z,33.15
2023-04-15T19:14:13.472Z,22.98
2023-04-15T19:16:40.009Z,14.13
2023-04-15T19:19:06.815Z,14.10
2023-04-15T19:24:00.678Z,18.23
2023-04-15T19:26:27.345Z,19.52
2023-04-15T19:28:53.943Z,19.35
2023-04-15T19:31:20.648Z,19.52
2023-04-15T19:33:47.201Z,20.50
2023-04-15T19:36:13.758Z,20.38
2023-04-15T19:38:40.363Z,23.60
2023-04-15T19:41:06.842Z,67.32
2023-04-15T19:43:33.382Z,38.00
2023-04-15T19:46:00.092Z,33.13
2023-04-15T19:48:26.703Z,30.23
2023-04-15T19:50:53.358Z,27.60
2023-04-15T19:53:19.995Z,25.00
2023-04-15T19:55:46.507Z,23.77
2023-04-15T19:58:13.012Z,22.50
2023-04-15T20:00:39.584Z,24.63
2023-04-15T20:03:06.283Z,28.17
2023-04-15T20:05:32.945Z,48.35
2023-04-15T20:08:00.930Z,44.53
2023-04-15T20:10:27.595Z,43.00
2023-04-15T20:12:54.101Z,46.70
2023-04-15T20:15:20.718Z,47.75
2023-04-15T20:17:47.381Z,45.22
2023-04-15T20:20:14.025Z,44.30
2023-04-15T20:22:40.619Z,49.60
2023-04-15T20:25:07.661Z,48.50
2023-04-15T20:30:00.611Z,34.70
2023-04-15T20:32:27.096Z,31.02
2023-04-15T20:34:53.911Z,29.05
2023-04-15T20:37:20.453Z,29.63
2023-04-15T20:39:46.946Z,27.05
2023-04-15T20:42:13.438Z,24.75
2023-04-15T20:44:40.142Z,21.80
2023-04-15T20:47:07.287Z,19.42
2023-04-15T20:49:37.989Z,16.58
2023-04-15T20:52:06.326Z,33.08
2023-04-15T20:54:32.906Z,32.08
2023-04-15T20:56:59.797Z,30.58
2023-04-15T20:59:26.341Z,35.55
2023-04-15T21:01:52.965Z,35.13
2023-04-15T21:04:19.821Z,32.42
2023-04-15T21:06:46.733Z,31.23
2023-04-15T21:09:13.631Z,22.60
2023-04-15T21:11:57.475Z,17.60
2023-04-15T21:14:26.695Z,16.42
2023-04-15T21:16:53.211Z,14.40
2023-04-15T21:19:19.735Z,13.60
2023-04-15T21:21:46.259Z,14.43
2023-04-15T21:24:12.761Z,14.18
2023-04-15T21:26:39.223Z,26.13
2023-04-15T21:29:07.843Z,23.80
2023-04-15T21:31:36.176Z,16.42
2023-04-15T21:34:02.720Z,16.23
2023-04-15T21:36:29.241Z,14.00
2023-04-15T21:38:55.784Z,13.00
2023-04-15T21:41:22.468Z,13.60
2023-04-15T21:43:49.038Z,15.18
2023-04-15T21:46:23.229Z,11.38
2023-04-15T21:48:53.402Z,11.93
2023-04-15T21:51:20.265Z,10.75
2023-04-15T21:53:47.050Z,11.10
2023-04-15T21:56:13.627Z,10.70
2023-04-15T21:58:40.308Z,10.80
2023-04-15T22:01:06.956Z,10.02
2023-04-15T22:03:34.663Z,9.48
2023-04-15T22:06:02.707Z,10.43
2023-04-15T22:08:30.129Z,11.13
2023-04-15T22:10:57.493Z,10.93
2023-04-15T22:13:23.988Z,12.00
2023-04-15T22:15:50.438Z,12.38
2023-04-15T22:18:16.953Z,10.40
2023-04-15T22:20:43.552Z,9.85
2023-04-15T22:23:10.079Z,10.10
2023-04-15T22:25:37.418Z,10.30
2023-04-15T22:28:05.601Z,9.32
2023-04-15T22:30:32.509Z,9.68
2023-04-15T22:32:59.084Z,8.95
2023-04-15T22:35:25.683Z,10.15
2023-04-15T22:37:52.670Z,10.57
2023-04-15T22:40:19.269Z,10.93
2023-04-15T22:42:46.056Z,11.73
2023-04-15T22:45:12.562Z,12.32
2023-04-15T22:47:39.116Z,14.00
2023-04-15T22:50:06.562Z,16.65
2023-04-15T22:52:33.062Z,13.40
2023-04-15T22:54:59.672Z,9.75
2023-04-15T22:57:26.277Z,10.05
2023-04-15T22:59:52.813Z,10.05
2023-04-15T23:02:19.582Z,9.80
2023-04-15T23:04:46.505Z,13.00
2023-04-15T23:07:13.040Z,14.82
2023-04-15T23:09:39.801Z,15.13
2023-04-15T23:12:06.689Z,23.08
2023-04-15T23:14:33.202Z,19.88
2023-04-15T23:16:59.674Z,15.27
2023-04-15T23:19:26.213Z,16.33
2023-04-15T23:21:54.129Z,11.88
2023-04-15T23:24:20.661Z,15.82
2023-04-15T23:26:47.245Z,12.73
2023-04-15T23:29:13.794Z,10.55
2023-04-15T23:31:40.441Z,10.88
2023-04-15T23:34:07.034Z,10.60
2023-04-15T23:36:33.515Z,10.95
2023-04-15T23:39:00.212Z,11.23
2023-04-15T23:41:26.832Z,11.30
2023-04-15T23:43:53.311Z,11.80
2023-04-15T23:46:19.909Z,13.27
2023-04-15T23:48:46.445Z,11.15
2023-04-15T23:51:12.965Z,11.18
2023-04-15T23:53:39.494Z,19.45
2023-04-15T23:56:06.253Z,13.02
2023-04-15T23:58:34.476Z,12.07
